sensor_id;sensor_type;location;lat;lon;timestamp;P1;P2;P0
40947;PMS5003;49382;-25.924;28.194;2023-03-14T00:01:32;10;9;
40947;PMS5003;49382;-25.924;28.194;2023-03-14T00:03:58;12;11;
40947;PMS5003;49382;-25.924;28.194;2023-03-14T00:06:24;10;10;
40947;PMS5003;49382;-25.924;28.194;2023-03-14T00:08:51;10;10;
40947;PMS5003;49382;-25.924;28.194;2023-03-14T00:11:17;11;10;
40947;PMS5003;49382;-25.924;28.194;2023-03-14T00:13:41;9;9;
40947;PMS5003;49382;-25.924;28.194;2023-03-14T00:16:08;11;10;
40947;PMS5003;49382;-25.924;28.194;2023-03-14T00:18:32;11;11;
40947;PMS5003;49382;-25.924;28.194;2023-03-14T00:20:58;11;11;
40947;PMS5003;49382;-25.924;28.194;2023-03-14T00:23:24;11;11;
40947;PMS5003;49382;-25.924;28.194;2023-03-14T00:25:49;13;12;
40947;PMS5003;49382;-25.924;28.194;2023-03-14T00:28:15;20;19;
40947;PMS5003;49382;-25.924;28.194;2023-03-14T00:30:41;19;19;
40947;PMS5003;49382;-25.924;28.194;2023-03-14T00:33:06;18;18;
40947;PMS5003;49382;-25.924;28.194;2023-03-14T00:35:32;11;10;
40947;PMS5003;49382;-25.924;28.194;2023-03-14T00:37:58;10;10;
40947;PMS5003;49382;-25.924;28.194;2023-03-14T00:40:24;6;6;
40947;PMS5003;49382;-25.924;28.194;2023-03-14T00:42:50;12;11;
40947;PMS5003;49382;-25.924;28.194;2023-03-14T00:45:16;14;14;
40947;PMS5003;49382;-25.924;28.194;2023-03-14T00:47:41;14;13;
40947;PMS5003;49382;-25.924;28.194;2023-03-14T00:50:08;17;17;
40947;PMS5003;49382;-25.924;28.194;2023-03-14T00:52:33;11;11;
40947;PMS5003;49382;-25.924;28.194;2023-03-14T00:54:58;74;73;
40947;PMS5003;49382;-25.924;28.194;2023-03-14T00:57:23;84;83;
40947;PMS5003;49382;-25.924;28.194;2023-03-14T00:59:50;9;8;
40947;PMS5003;49382;-25.924;28.194;2023-03-14T01:02:15;10;10;
40947;PMS5003;49382;-25.924;28.194;2023-03-14T01:04:41;34;34;
40947;PMS5003;49382;-25.924;28.194;2023-03-14T01:07:07;11;11;
40947;PMS5003;49382;-25.924;28.194;2023-03-14T01:09:32;11;10;
40947;PMS5003;49382;-25.924;28.194;2023-03-14T01:11:58;12;11;
40947;PMS5003;49382;-25.924;28.194;2023-03-14T01:14:24;11;10;
40947;PMS5003;49382;-25.924;28.194;2023-03-14T01:16:51;12;10;
40947;PMS5003;49382;-25.924;28.194;2023-03-14T01:19:16;13;11;
40947;PMS5003;49382;-25.924;28.194;2023-03-14T01:21:41;11;9;
40947;PMS5003;49382;-25.924;28.194;2023-03-14T01:24:10;10;9;
40947;PMS5003;49382;-25.924;28.194;2023-03-14T01:26:34;14;13;
40947;PMS5003;49382;-25.924;28.194;2023-03-14T01:28:59;14;14;
40947;PMS5003;49382;-25.924;28.194;2023-03-14T01:31:25;13;13;
40947;PMS5003;49382;-25.924;28.194;2023-03-14T01:33:51;13;13;
40947;PMS5003;49382;-25.924;28.194;2023-03-14T01:36:16;14;14;
40947;PMS5003;49382;-25.924;28.194;2023-03-14T01:38:41;12;12;
40947;PMS5003;49382;-25.924;28.194;2023-03-14T01:41:07;68;67;
40947;PMS5003;49382;-25.924;28.194;2023-03-14T01:43:32;19;18;
40947;PMS5003;49382;-25.924;28.194;2023-03-14T01:48:24;16;14;
40947;PMS5003;49382;-25.924;28.194;2023-03-14T01:50:52;15;15;
40947;PMS5003;49382;-25.924;28.194;2023-03-14T01:53:16;16;16;
40947;PMS5003;49382;-25.924;28.194;2023-03-14T01:55:41;75;75;
40947;PMS5003;49382;-25.924;28.194;2023-03-14T01:58:07;18;17;
40947;PMS5003;49382;-25.924;28.194;2023-03-14T02:00:32;41;40;
40947;PMS5003;49382;-25.924;28.194;2023-03-14T02:02:58;17;17;
40947;PMS5003;49382;-25.924;28.194;2023-03-14T02:05:24;18;18;
40947;PMS5003;49382;-25.924;28.194;2023-03-14T02:07:50;16;16;
40947;PMS5003;49382;-25.924;28.194;2023-03-14T02:10:15;19;19;
40947;PMS5003;49382;-25.924;28.194;2023-03-14T02:12:41;19;19;
40947;PMS5003;49382;-25.924;28.194;2023-03-14T02:15:07;18;18;
40947;PMS5003;49382;-25.924;28.194;2023-03-14T02:17:32;18;17;
40947;PMS5003;49382;-25.924;28.194;2023-03-14T02:22:24;18;18;
40947;PMS5003;49382;-25.924;28.194;2023-03-14T02:24:51;19;18;
40947;PMS5003;49382;-25.924;28.194;2023-03-14T02:27:16;16;16;
40947;PMS5003;49382;-25.924;28.194;2023-03-14T02:29:44;17;17;
40947;PMS5003;49382;-25.924;28.194;2023-03-14T02:32:07;15;15;
40947;PMS5003;49382;-25.924;28.194;2023-03-14T02:34:33;17;16;
40947;PMS5003;49382;-25.924;28.194;2023-03-14T02:36:59;15;14;
40947;PMS5003;49382;-25.924;28.194;2023-03-14T02:39:26;17;17;
40947;PMS5003;49382;-25.924;28.194;2023-03-14T02:41:52;14;14;
40947;PMS5003;49382;-25.924;28.194;2023-03-14T02:44:16;16;16;
40947;PMS5003;49382;-25.924;28.194;2023-03-14T02:46:41;23;21;
40947;PMS5003;49382;-25.924;28.194;2023-03-14T02:49:07;39;39;
40947;PMS5003;49382;-25.924;28.194;2023-03-14T02:51:32;33;32;
40947;PMS5003;49382;-25.924;28.194;2023-03-14T02:53:57;40;38;
40947;PMS5003;49382;-25.924;28.194;2023-03-14T02:56:22;45;40;
40947;PMS5003;49382;-25.924;28.194;2023-03-14T02:58:48;55;52;
40947;PMS5003;49382;-25.924;28.194;2023-03-14T03:01:13;42;39;
40947;PMS5003;49382;-25.924;28.194;2023-03-14T03:03:38;47;44;
40947;PMS5003;49382;-25.924;28.194;2023-03-14T03:06:04;38;38;
40947;PMS5003;49382;-25.924;28.194;2023-03-14T03:08:29;77;74;
40947;PMS5003;49382;-25.924;28.194;2023-03-14T03:10:55;53;46;
40947;PMS5003;49382;-25.924;28.194;2023-03-14T03:13:20;58;54;
40947;PMS5003;49382;-25.924;28.194;2023-03-14T03:15:46;44;43;
40947;PMS5003;49382;-25.924;28.194;2023-03-14T03:18:11;52;47;
40947;PMS5003;49382;-25.924;28.194;2023-03-14T03:20:36;38;37;
40947;PMS5003;49382;-25.924;28.194;2023-03-14T03:23:01;61;59;
40947;PMS5003;49382;-25.924;28.194;2023-03-14T03:25:27;53;52;
40947;PMS5003;49382;-25.924;28.194;2023-03-14T03:27:52;50;48;
40947;PMS5003;49382;-25.924;28.194;2023-03-14T03:30:17;56;48;
40947;PMS5003;49382;-25.924;28.194;2023-03-14T03:32:42;81;81;
40947;PMS5003;49382;-25.924;28.194;2023-03-14T03:35:08;64;58;
40947;PMS5003;49382;-25.924;28.194;2023-03-14T03:37:33;58;55;
40947;PMS5003;49382;-25.924;28.194;2023-03-14T03:39:58;54;50;
40947;PMS5003;49382;-25.924;28.194;2023-03-14T03:42:24;57;54;
40947;PMS5003;49382;-25.924;28.194;2023-03-14T03:44:49;41;40;
40947;PMS5003;49382;-25.924;28.194;2023-03-14T03:47:15;43;42;
40947;PMS5003;49382;-25.924;28.194;2023-03-14T03:49:41;48;45;
40947;PMS5003;49382;-25.924;28.194;2023-03-14T03:52:06;45;41;
40947;PMS5003;49382;-25.924;28.194;2023-03-14T03:56:57;52;46;
40947;PMS5003;49382;-25.924;28.194;2023-03-14T03:59:23;75;70;
40947;PMS5003;49382;-25.924;28.194;2023-03-14T04:01:48;49;48;
40947;PMS5003;49382;-25.924;28.194;2023-03-14T04:04:13;40;36;
40947;PMS5003;49382;-25.924;28.194;2023-03-14T04:06:38;45;39;
40947;PMS5003;49382;-25.924;28.194;2023-03-14T04:09:04;47;43;
40947;PMS5003;49382;-25.924;28.194;2023-03-14T04:11:29;45;41;
40947;PMS5003;49382;-25.924;28.194;2023-03-14T04:13:55;37;37;
40947;PMS5003;49382;-25.924;28.194;2023-03-14T04:16:21;39;35;
40947;PMS5003;49382;-25.924;28.194;2023-03-14T04:18:45;43;41;
40947;PMS5003;49382;-25.924;28.194;2023-03-14T04:21:11;41;37;
40947;PMS5003;49382;-25.924;28.194;2023-03-14T04:23:37;37;35;
40947;PMS5003;49382;-25.924;28.194;2023-03-14T04:26:02;39;36;
40947;PMS5003;49382;-25.924;28.194;2023-03-14T04:28:27;40;37;
40947;PMS5003;49382;-25.924;28.194;2023-03-14T04:30:52;37;35;
40947;PMS5003;49382;-25.924;28.194;2023-03-14T04:33:17;33;30;
40947;PMS5003;49382;-25.924;28.194;2023-03-14T04:35:43;32;31;
40947;PMS5003;49382;-25.924;28.194;2023-03-14T04:38:08;30;29;
40947;PMS5003;49382;-25.924;28.194;2023-03-14T04:40:36;29;28;
40947;PMS5003;49382;-25.924;28.194;2023-03-14T04:43:00;30;29;
40947;PMS5003;49382;-25.924;28.194;2023-03-14T04:45:25;34;33;
40947;PMS5003;49382;-25.924;28.194;2023-03-14T04:47:52;32;31;
40947;PMS5003;49382;-25.924;28.194;2023-03-14T04:50:16;39;37;
40947;PMS5003;49382;-25.924;28.194;2023-03-14T04:52:42;27;25;
40947;PMS5003;49382;-25.924;28.194;2023-03-14T04:55:07;30;27;
40947;PMS5003;49382;-25.924;28.194;2023-03-14T04:57:33;28;26;
40947;PMS5003;49382;-25.924;28.194;2023-03-14T04:59:58;27;25;
40947;PMS5003;49382;-25.924;28.194;2023-03-14T05:02:24;25;25;
40947;PMS5003;49382;-25.924;28.194;2023-03-14T05:04:49;28;26;
40947;PMS5003;49382;-25.924;28.194;2023-03-14T05:07:15;23;22;
40947;PMS5003;49382;-25.924;28.194;2023-03-14T05:09:40;21;20;
40947;PMS5003;49382;-25.924;28.194;2023-03-14T05:12:05;48;47;
40947;PMS5003;49382;-25.924;28.194;2023-03-14T05:14:31;33;33;
40947;PMS5003;49382;-25.924;28.194;2023-03-14T05:16:56;26;26;
40947;PMS5003;49382;-25.924;28.194;2023-03-14T05:19:22;69;69;
40947;PMS5003;49382;-25.924;28.194;2023-03-14T05:21:47;19;19;
40947;PMS5003;49382;-25.924;28.194;2023-03-14T05:24:13;22;22;
40947;PMS5003;49382;-25.924;28.194;2023-03-14T05:26:38;22;21;
40947;PMS5003;49382;-25.924;28.194;2023-03-14T05:29:04;28;28;
40947;PMS5003;49382;-25.924;28.194;2023-03-14T05:31:30;39;39;
40947;PMS5003;49382;-25.924;28.194;2023-03-14T05:33:56;16;15;
40947;PMS5003;49382;-25.924;28.194;2023-03-14T05:36:21;14;13;
40947;PMS5003;49382;-25.924;28.194;2023-03-14T05:38:47;12;12;
40947;PMS5003;49382;-25.924;28.194;2023-03-14T05:41:13;7;7;
40947;PMS5003;49382;-25.924;28.194;2023-03-14T05:43:38;6;6;
40947;PMS5003;49382;-25.924;28.194;2023-03-14T05:46:04;6;6;
40947;PMS5003;49382;-25.924;28.194;2023-03-14T05:48:30;5;5;
40947;PMS5003;49382;-25.924;28.194;2023-03-14T05:50:56;7;6;
40947;PMS5003;49382;-25.924;28.194;2023-03-14T05:53:22;6;6;
40947;PMS5003;49382;-25.924;28.194;2023-03-14T05:55:50;5;5;
40947;PMS5003;49382;-25.924;28.194;2023-03-14T05:58:13;6;6;
40947;PMS5003;49382;-25.924;28.194;2023-03-14T06:00:39;6;6;
40947;PMS5003;49382;-25.924;28.194;2023-03-14T06:03:05;5;5;
40947;PMS5003;49382;-25.924;28.194;2023-03-14T06:05:30;4;4;
40947;PMS5003;49382;-25.924;28.194;2023-03-14T06:07:56;4;4;
40947;PMS5003;49382;-25.924;28.194;2023-03-14T06:10:22;7;6;
40947;PMS5003;49382;-25.924;28.194;2023-03-14T06:12:48;7;6;
40947;PMS5003;49382;-25.924;28.194;2023-03-14T06:15:13;5;5;
40947;PMS5003;49382;-25.924;28.194;2023-03-14T06:17:39;6;5;
40947;PMS5003;49382;-25.924;28.194;2023-03-14T06:20:05;6;6;
40947;PMS5003;49382;-25.924;28.194;2023-03-14T06:22:31;5;4;
40947;PMS5003;49382;-25.924;28.194;2023-03-14T06:24:56;6;6;
40947;PMS5003;49382;-25.924;28.194;2023-03-14T06:27:22;4;3;
40947;PMS5003;49382;-25.924;28.194;2023-03-14T06:29:48;4;4;
40947;PMS5003;49382;-25.924;28.194;2023-03-14T06:32:14;4;3;
40947;PMS5003;49382;-25.924;28.194;2023-03-14T06:34:39;4;4;
40947;PMS5003;49382;-25.924;28.194;2023-03-14T06:37:05;4;4;
40947;PMS5003;49382;-25.924;28.194;2023-03-14T06:39:31;0;0;
40947;PMS5003;49382;-25.924;28.194;2023-03-14T06:41:57;3;3;
40947;PMS5003;49382;-25.924;28.194;2023-03-14T06:44:22;3;3;
40947;PMS5003;49382;-25.924;28.194;2023-03-14T06:46:48;2;2;
40947;PMS5003;49382;-25.924;28.194;2023-03-14T06:49:14;3;3;
40947;PMS5003;49382;-25.924;28.194;2023-03-14T06:51:40;2;1;
40947;PMS5003;49382;-25.924;28.194;2023-03-14T06:54:05;3;3;
40947;PMS5003;49382;-25.924;28.194;2023-03-14T06:56:31;5;4;
40947;PMS5003;49382;-25.924;28.194;2023-03-14T06:58:57;2;2;
40947;PMS5003;49382;-25.924;28.194;2023-03-14T07:01:23;3;2;
40947;PMS5003;49382;-25.924;28.194;2023-03-14T07:03:48;5;4;
40947;PMS5003;49382;-25.924;28.194;2023-03-14T07:06:14;4;4;
40947;PMS5003;49382;-25.924;28.194;2023-03-14T07:08:40;4;4;
40947;PMS5003;49382;-25.924;28.194;2023-03-14T07:11:06;8;6;
40947;PMS5003;49382;-25.924;28.194;2023-03-14T07:13:31;7;5;
40947;PMS5003;49382;-25.924;28.194;2023-03-14T07:15:57;7;7;
40947;PMS5003;49382;-25.924;28.194;2023-03-14T07:18:23;7;7;
40947;PMS5003;49382;-25.924;28.194;2023-03-14T07:20:48;5;5;
40947;PMS5003;49382;-25.924;28.194;2023-03-14T07:23:14;5;5;
40947;PMS5003;49382;-25.924;28.194;2023-03-14T07:25:40;4;4;
40947;PMS5003;49382;-25.924;28.194;2023-03-14T07:28:06;6;6;
40947;PMS5003;49382;-25.924;28.194;2023-03-14T07:30:31;9;8;
40947;PMS5003;49382;-25.924;28.194;2023-03-14T07:32:57;28;28;
40947;PMS5003;49382;-25.924;28.194;2023-03-14T07:35:23;12;12;
40947;PMS5003;49382;-25.924;28.194;2023-03-14T07:37:48;16;15;
40947;PMS5003;49382;-25.924;28.194;2023-03-14T07:40:13;36;36;
40947;PMS5003;49382;-25.924;28.194;2023-03-14T07:42:39;20;18;
40947;PMS5003;49382;-25.924;28.194;2023-03-14T07:45:04;49;48;
40947;PMS5003;49382;-25.924;28.194;2023-03-14T07:47:29;10;10;
40947;PMS5003;49382;-25.924;28.194;2023-03-14T07:49:55;14;14;
40947;PMS5003;49382;-25.924;28.194;2023-03-14T07:52:21;14;13;
40947;PMS5003;49382;-25.924;28.194;2023-03-14T07:54:47;8;8;
40947;PMS5003;49382;-25.924;28.194;2023-03-14T07:57:12;10;8;
40947;PMS5003;49382;-25.924;28.194;2023-03-14T07:59:38;10;10;
40947;PMS5003;49382;-25.924;28.194;2023-03-14T08:02:04;8;8;
40947;PMS5003;49382;-25.924;28.194;2023-03-14T08:04:30;7;7;
40947;PMS5003;49382;-25.924;28.194;2023-03-14T08:06:55;9;8;
40947;PMS5003;49382;-25.924;28.194;2023-03-14T08:09:21;7;6;
40947;PMS5003;49382;-25.924;28.194;2023-03-14T08:11:47;6;6;
40947;PMS5003;49382;-25.924;28.194;2023-03-14T08:14:13;4;4;
40947;PMS5003;49382;-25.924;28.194;2023-03-14T08:16:38;3;3;
40947;PMS5003;49382;-25.924;28.194;2023-03-14T08:19:04;5;5;
40947;PMS5003;49382;-25.924;28.194;2023-03-14T08:21:30;4;4;
40947;PMS5003;49382;-25.924;28.194;2023-03-14T08:23:56;6;5;
40947;PMS5003;49382;-25.924;28.194;2023-03-14T08:26:21;5;5;
40947;PMS5003;49382;-25.924;28.194;2023-03-14T08:28:47;4;4;
40947;PMS5003;49382;-25.924;28.194;2023-03-14T08:31:13;4;4;
40947;PMS5003;49382;-25.924;28.194;2023-03-14T08:33:38;5;5;
40947;PMS5003;49382;-25.924;28.194;2023-03-14T08:36:04;4;4;
40947;PMS5003;49382;-25.924;28.194;2023-03-14T08:38:30;3;3;
40947;PMS5003;49382;-25.924;28.194;2023-03-14T08:40:56;4;4;
40947;PMS5003;49382;-25.924;28.194;2023-03-14T08:43:21;4;4;
40947;PMS5003;49382;-25.924;28.194;2023-03-14T08:45:47;3;3;
40947;PMS5003;49382;-25.924;28.194;2023-03-14T08:48:13;4;3;
40947;PMS5003;49382;-25.924;28.194;2023-03-14T08:50:38;5;5;
40947;PMS5003;49382;-25.924;28.194;2023-03-14T08:53:04;5;4;
40947;PMS5003;49382;-25.924;28.194;2023-03-14T08:55:30;6;5;
40947;PMS5003;49382;-25.924;28.194;2023-03-14T08:57:55;5;5;
40947;PMS5003;49382;-25.924;28.194;2023-03-14T09:00:21;5;5;
40947;PMS5003;49382;-25.924;28.194;2023-03-14T09:02:47;3;2;
40947;PMS5003;49382;-25.924;28.194;2023-03-14T09:05:13;2;2;
40947;PMS5003;49382;-25.924;28.194;2023-03-14T09:07:38;3;3;
40947;PMS5003;49382;-25.924;28.194;2023-03-14T09:10:04;3;3;
40947;PMS5003;49382;-25.924;28.194;2023-03-14T09:12:30;2;2;
40947;PMS5003;49382;-25.924;28.194;2023-03-14T09:14:55;3;3;
40947;PMS5003;49382;-25.924;28.194;2023-03-14T09:17:21;6;5;
40947;PMS5003;49382;-25.924;28.194;2023-03-14T09:19:47;5;5;
40947;PMS5003;49382;-25.924;28.194;2023-03-14T09:22:13;6;6;
40947;PMS5003;49382;-25.924;28.194;2023-03-14T09:24:39;5;5;
40947;PMS5003;49382;-25.924;28.194;2023-03-14T09:27:04;7;6;
40947;PMS5003;49382;-25.924;28.194;2023-03-14T09:29:30;5;4;
40947;PMS5003;49382;-25.924;28.194;2023-03-14T09:31:55;6;6;
40947;PMS5003;49382;-25.924;28.194;2023-03-14T09:34:21;6;6;
40947;PMS5003;49382;-25.924;28.194;2023-03-14T09:36:47;5;5;
40947;PMS5003;49382;-25.924;28.194;2023-03-14T09:39:13;4;4;
40947;PMS5003;49382;-25.924;28.194;2023-03-14T09:41:39;3;3;
40947;PMS5003;49382;-25.924;28.194;2023-03-14T09:46:30;2;2;
40947;PMS5003;49382;-25.924;28.194;2023-03-14T09:48:56;2;2;
40947;PMS5003;49382;-25.924;28.194;2023-03-14T09:51:21;3;3;
40947;PMS5003;49382;-25.924;28.194;2023-03-14T09:53:48;4;4;
40947;PMS5003;49382;-25.924;28.194;2023-03-14T09:56:14;4;4;
40947;PMS5003;49382;-25.924;28.194;2023-03-14T09:58:39;2;2;
40947;PMS5003;49382;-25.924;28.194;2023-03-14T10:01:04;1;1;
40947;PMS5003;49382;-25.924;28.194;2023-03-14T10:03:31;1;1;
40947;PMS5003;49382;-25.924;28.194;2023-03-14T10:05:56;2;2;
40947;PMS5003;49382;-25.924;28.194;2023-03-14T10:08:21;1;1;
40947;PMS5003;49382;-25.924;28.194;2023-03-14T10:10:47;2;2;
40947;PMS5003;49382;-25.924;28.194;2023-03-14T10:13:14;5;3;
40947;PMS5003;49382;-25.924;28.194;2023-03-14T10:15:39;2;2;
40947;PMS5003;49382;-25.924;28.194;2023-03-14T10:18:09;3;3;
40947;PMS5003;49382;-25.924;28.194;2023-03-14T10:20:32;2;2;
40947;PMS5003;49382;-25.924;28.194;2023-03-14T10:22:55;1;1;
40947;PMS5003;49382;-25.924;28.194;2023-03-14T10:25:25;2;2;
40947;PMS5003;49382;-25.924;28.194;2023-03-14T10:27:47;1;1;
40947;PMS5003;49382;-25.924;28.194;2023-03-14T10:30:26;1;1;
40947;PMS5003;49382;-25.924;28.194;2023-03-14T10:32:39;1;1;
40947;PMS5003;49382;-25.924;28.194;2023-03-14T10:35:08;0;0;
40947;PMS5003;49382;-25.924;28.194;2023-03-14T10:37:30;2;2;
40947;PMS5003;49382;-25.924;28.194;2023-03-14T10:39:58;2;2;
40947;PMS5003;49382;-25.924;28.194;2023-03-14T10:42:21;2;2;
40947;PMS5003;49382;-25.924;28.194;2023-03-14T10:44:48;2;2;
40947;PMS5003;49382;-25.924;28.194;2023-03-14T10:47:16;2;2;
40947;PMS5003;49382;-25.924;28.194;2023-03-14T10:49:38;1;1;
40947;PMS5003;49382;-25.924;28.194;2023-03-14T10:54:30;2;2;
40947;PMS5003;49382;-25.924;28.194;2023-03-14T10:56:57;3;2;
40947;PMS5003;49382;-25.924;28.194;2023-03-14T10:59:21;1;1;
40947;PMS5003;49382;-25.924;28.194;2023-03-14T11:01:47;1;1;
40947;PMS5003;49382;-25.924;28.194;2023-03-14T11:04:15;2;2;
40947;PMS5003;49382;-25.924;28.194;2023-03-14T11:06:40;0;0;
40947;PMS5003;49382;-25.924;28.194;2023-03-14T11:09:06;0;0;
40947;PMS5003;49382;-25.924;28.194;2023-03-14T11:11:30;1;1;
40947;PMS5003;49382;-25.924;28.194;2023-03-14T11:13:59;1;0;
40947;PMS5003;49382;-25.924;28.194;2023-03-14T11:16:22;0;0;
40947;PMS5003;49382;-25.924;28.194;2023-03-14T11:21:13;2;2;
40947;PMS5003;49382;-25.924;28.194;2023-03-14T11:23:40;0;0;
40947;PMS5003;49382;-25.924;28.194;2023-03-14T11:26:08;2;2;
40947;PMS5003;49382;-25.924;28.194;2023-03-14T11:28:32;1;1;
40947;PMS5003;49382;-25.924;28.194;2023-03-14T11:30:57;0;0;
40947;PMS5003;49382;-25.924;28.194;2023-03-14T11:33:22;1;1;
40947;PMS5003;49382;-25.924;28.194;2023-03-14T11:35:48;0;0;
40947;PMS5003;49382;-25.924;28.194;2023-03-14T11:38:14;2;1;
40947;PMS5003;49382;-25.924;28.194;2023-03-14T11:40:38;0;0;
40947;PMS5003;49382;-25.924;28.194;2023-03-14T11:43:06;2;1;
40947;PMS5003;49382;-25.924;28.194;2023-03-14T11:45:32;1;1;
40947;PMS5003;49382;-25.924;28.194;2023-03-14T11:47:58;2;1;
40947;PMS5003;49382;-25.924;28.194;2023-03-14T11:50:21;0;0;
40947;PMS5003;49382;-25.924;28.194;2023-03-14T11:52:47;0;0;
40947;PMS5003;49382;-25.924;28.194;2023-03-14T11:55:13;0;0;
40947;PMS5003;49382;-25.924;28.194;2023-03-14T11:57:39;0;0;
40947;PMS5003;49382;-25.924;28.194;2023-03-14T12:00:05;0;0;
40947;PMS5003;49382;-25.924;28.194;2023-03-14T12:02:33;1;1;
40947;PMS5003;49382;-25.924;28.194;2023-03-14T12:05:14;1;0;
40947;PMS5003;49382;-25.924;28.194;2023-03-14T12:07:22;1;0;
40947;PMS5003;49382;-25.924;28.194;2023-03-14T12:09:47;0;0;
40947;PMS5003;49382;-25.924;28.194;2023-03-14T12:12:13;0;0;
40947;PMS5003;49382;-25.924;28.194;2023-03-14T12:14:38;0;0;
40947;PMS5003;49382;-25.924;28.194;2023-03-14T12:17:05;0;0;
40947;PMS5003;49382;-25.924;28.194;2023-03-14T12:19:31;1;1;
40947;PMS5003;49382;-25.924;28.194;2023-03-14T12:21:57;0;0;
40947;PMS5003;49382;-25.924;28.194;2023-03-14T12:24:22;1;0;
40947;PMS5003;49382;-25.924;28.194;2023-03-14T12:26:50;0;0;
40947;PMS5003;49382;-25.924;28.194;2023-03-14T12:29:15;1;1;
40947;PMS5003;49382;-25.924;28.194;2023-03-14T12:31:41;1;1;
40947;PMS5003;49382;-25.924;28.194;2023-03-14T12:34:10;0;0;
40947;PMS5003;49382;-25.924;28.194;2023-03-14T12:39:01;0;0;
40947;PMS5003;49382;-25.924;28.194;2023-03-14T12:41:22;0;0;
40947;PMS5003;49382;-25.924;28.194;2023-03-14T12:43:47;1;1;
40947;PMS5003;49382;-25.924;28.194;2023-03-14T12:46:20;0;0;
40947;PMS5003;49382;-25.924;28.194;2023-03-14T12:48:38;0;0;
40947;PMS5003;49382;-25.924;28.194;2023-03-14T12:51:05;1;0;
40947;PMS5003;49382;-25.924;28.194;2023-03-14T12:55:56;1;1;
40947;PMS5003;49382;-25.924;28.194;2023-03-14T12:58:22;0;0;
40947;PMS5003;49382;-25.924;28.194;2023-03-14T13:00:50;1;0;
40947;PMS5003;49382;-25.924;28.194;2023-03-14T13:03:16;1;1;
40947;PMS5003;49382;-25.924;28.194;2023-03-14T13:05:40;1;1;
40947;PMS5003;49382;-25.924;28.194;2023-03-14T13:08:05;0;0;
40947;PMS5003;49382;-25.924;28.194;2023-03-14T13:10:30;0;0;
40947;PMS5003;49382;-25.924;28.194;2023-03-14T13:12:56;0;0;
40947;PMS5003;49382;-25.924;28.194;2023-03-14T13:15:24;1;1;
40947;PMS5003;49382;-25.924;28.194;2023-03-14T13:17:47;1;1;
40947;PMS5003;49382;-25.924;28.194;2023-03-14T13:20:14;1;1;
40947;PMS5003;49382;-25.924;28.194;2023-03-14T13:22:38;1;1;
40947;PMS5003;49382;-25.924;28.194;2023-03-14T13:25:05;1;1;
40947;PMS5003;49382;-25.924;28.194;2023-03-14T13:27:30;2;2;
40947;PMS5003;49382;-25.924;28.194;2023-03-14T13:29:55;2;2;
40947;PMS5003;49382;-25.924;28.194;2023-03-14T13:32:22;2;2;
40947;PMS5003;49382;-25.924;28.194;2023-03-14T13:34:47;1;1;
40947;PMS5003;49382;-25.924;28.194;2023-03-14T13:37:15;2;2;
40947;PMS5003;49382;-25.924;28.194;2023-03-14T13:39:38;1;1;
40947;PMS5003;49382;-25.924;28.194;2023-03-14T13:42:04;1;1;
40947;PMS5003;49382;-25.924;28.194;2023-03-14T13:44:31;1;1;
40947;PMS5003;49382;-25.924;28.194;2023-03-14T13:46:57;2;2;
40947;PMS5003;49382;-25.924;28.194;2023-03-14T13:49:22;2;2;
40947;PMS5003;49382;-25.924;28.194;2023-03-14T13:51:47;1;1;
40947;PMS5003;49382;-25.924;28.194;2023-03-14T13:54:13;1;1;
40947;PMS5003;49382;-25.924;28.194;2023-03-14T13:56:38;0;0;
40947;PMS5003;49382;-25.924;28.194;2023-03-14T13:59:04;2;1;
40947;PMS5003;49382;-25.924;28.194;2023-03-14T14:01:30;3;3;
40947;PMS5003;49382;-25.924;28.194;2023-03-14T14:03:56;1;1;
40947;PMS5003;49382;-25.924;28.194;2023-03-14T14:06:25;1;1;
40947;PMS5003;49382;-25.924;28.194;2023-03-14T14:08:47;2;2;
40947;PMS5003;49382;-25.924;28.194;2023-03-14T14:11:15;3;3;
40947;PMS5003;49382;-25.924;28.194;2023-03-14T14:13:38;2;2;
40947;PMS5003;49382;-25.924;28.194;2023-03-14T14:16:04;2;2;
40947;PMS5003;49382;-25.924;28.194;2023-03-14T14:18:30;4;3;
40947;PMS5003;49382;-25.924;28.194;2023-03-14T14:20:56;2;2;
40947;PMS5003;49382;-25.924;28.194;2023-03-14T14:23:22;3;3;
40947;PMS5003;49382;-25.924;28.194;2023-03-14T14:25:48;6;5;
40947;PMS5003;49382;-25.924;28.194;2023-03-14T14:28:17;5;4;
40947;PMS5003;49382;-25.924;28.194;2023-03-14T14:30:38;2;2;
40947;PMS5003;49382;-25.924;28.194;2023-03-14T14:33:11;3;3;
40947;PMS5003;49382;-25.924;28.194;2023-03-14T14:35:31;4;3;
40947;PMS5003;49382;-25.924;28.194;2023-03-14T14:37:56;2;2;
40947;PMS5003;49382;-25.924;28.194;2023-03-14T14:40:22;2;2;
40947;PMS5003;49382;-25.924;28.194;2023-03-14T14:42:47;7;6;
40947;PMS5003;49382;-25.924;28.194;2023-03-14T14:45:14;3;3;
40947;PMS5003;49382;-25.924;28.194;2023-03-14T14:50:04;2;2;
40947;PMS5003;49382;-25.924;28.194;2023-03-14T14:52:33;2;2;
40947;PMS5003;49382;-25.924;28.194;2023-03-14T14:54:58;3;3;
40947;PMS5003;49382;-25.924;28.194;2023-03-14T14:57:22;2;2;
40947;PMS5003;49382;-25.924;28.194;2023-03-14T14:59:48;2;2;
40947;PMS5003;49382;-25.924;28.194;2023-03-14T15:04:39;0;0;
40947;PMS5003;49382;-25.924;28.194;2023-03-14T15:07:04;3;2;
40947;PMS5003;49382;-25.924;28.194;2023-03-14T15:09:30;3;3;
40947;PMS5003;49382;-25.924;28.194;2023-03-14T15:11:56;1;1;
40947;PMS5003;49382;-25.924;28.194;2023-03-14T15:14:22;1;1;
40947;PMS5003;49382;-25.924;28.194;2023-03-14T15:16:47;2;2;
40947;PMS5003;49382;-25.924;28.194;2023-03-14T15:19:19;2;2;
40947;PMS5003;49382;-25.924;28.194;2023-03-14T15:21:39;2;1;
40947;PMS5003;49382;-25.924;28.194;2023-03-14T15:24:05;3;3;
40947;PMS5003;49382;-25.924;28.194;2023-03-14T15:26:30;3;3;
40947;PMS5003;49382;-25.924;28.194;2023-03-14T15:28:56;2;2;
40947;PMS5003;49382;-25.924;28.194;2023-03-14T15:31:22;2;2;
40947;PMS5003;49382;-25.924;28.194;2023-03-14T15:33:48;1;1;
40947;PMS5003;49382;-25.924;28.194;2023-03-14T15:36:19;1;1;
40947;PMS5003;49382;-25.924;28.194;2023-03-14T15:38:39;1;1;
40947;PMS5003;49382;-25.924;28.194;2023-03-14T15:41:05;2;2;
40947;PMS5003;49382;-25.924;28.194;2023-03-14T15:43:30;2;2;
40947;PMS5003;49382;-25.924;28.194;2023-03-14T15:45:56;2;2;
40947;PMS5003;49382;-25.924;28.194;2023-03-14T15:48:22;3;3;
40947;PMS5003;49382;-25.924;28.194;2023-03-14T15:50:47;2;2;
40947;PMS5003;49382;-25.924;28.194;2023-03-14T15:53:13;3;3;
40947;PMS5003;49382;-25.924;28.194;2023-03-14T15:55:39;3;3;
40947;PMS5003;49382;-25.924;28.194;2023-03-14T15:58:05;1;1;
40947;PMS5003;49382;-25.924;28.194;2023-03-14T16:00:30;4;4;
40947;PMS5003;49382;-25.924;28.194;2023-03-14T16:02:56;3;3;
40947;PMS5003;49382;-25.924;28.194;2023-03-14T16:05:22;3;2;
40947;PMS5003;49382;-25.924;28.194;2023-03-14T16:07:47;2;2;
40947;PMS5003;49382;-25.924;28.194;2023-03-14T16:10:14;6;6;
40947;PMS5003;49382;-25.924;28.194;2023-03-14T16:12:39;1;1;
40947;PMS5003;49382;-25.924;28.194;2023-03-14T16:15:05;2;1;
40947;PMS5003;49382;-25.924;28.194;2023-03-14T16:17:30;2;2;
40947;PMS5003;49382;-25.924;28.194;2023-03-14T16:19:56;1;1;